Aérodrome :
LOGIN :

S'inscrire | Disclaimer

   EN    FR    IT 

 










Légende :    VFR   VFR Marginal   IFR   IFR Intensif   IFR Très Intensif
Visi : 
Plafond : 
>= 8 km
>= 3000ft
5 à 8 km
1000 à 3000 ft
1500m à 5 km
500 à 1000 ft
800 à 1500m
200 à 500 ft
< 800m
< 200 ft
Symboles :   Orages  Brouillard  Fortes neiges  Fortes précipitations  Vent > 20 kt
SIGMETs :   Divers  Orages  Givrage  Turbulence  Onde Orograph.  Cendres Volcan.







- Altitude de l'aérodrome : 80 ft
- Code IATA : LPL
- Voir les cartes d'approche


EGGP - Liverpool John Lennon

DERNIER METAR :
  • 150950Z 05007KT CAVOK 10/07 Q1014

METARs EXPIRÉS :
  • 150920Z 05006KT CAVOK 09/06 Q1014
  • 150850Z 05006KT CAVOK 10/07 Q1014
  • 150820Z 05008KT CAVOK 10/06 Q1014
  • 150750Z 03007KT CAVOK 09/05 Q1014
  • 150720Z 01008KT CAVOK 09/06 Q1014

TAF TAF EGGP
Valide du 15 à 06h jusqu'au 16 à 06h UTC


150457Z 1506/1606 02004KT 9999 SCT030
PROB30
TEMPO 1523/1603 8000 -RA BKN014
BECMG 1603/1606 16010KT
PROB30
TEMPO 1603/1606 4000 -RA BR BKN007
ATIS : +44 151 907 2000 (option 5 or ext 5150)
Météo : +44 871 750 5150
Pas de NOTAMs connus pour ce terrain.
2 SIGMETs publiés pour la FIR London (EGTT) :
 
Annulation du SIGMET 02
EGTT SIGMET 03 VALID 150705/151100 EGRR
EGTT LONDON FIR CNL SIGMET 02 150700/151100=
SIGMET 02  ANNULÉ :
Orages noyés dans la masse
EGTT SIGMET 02 VALID 150700/151100 EGRR
EGTT LONDON FIR EMBD TS FCST WI N5427 E00255 - N5135 E00126 - N5103 W00016 - N5236 W00022 - N5427 E00255 TOP FL280 MOV NE 10KT WKN=



MET'MAP, la Météo Aéronautique d'un coup d'oeil ! - Copyright ORBIFLY Décembre 2007 - Disclaimer

ORBIFLY MET'MAP TEAM :

Programmation & Développement : Alexandra Zaïnal
Conception & Développement : Baudouin d'Aumeries
Co-Programmation & Développement : Marc-Olivier Méhu
Soutien technique & logistique : Manuel Goepfert

Contact : metmap@orbifly.com




SOURCES & CREDITS :

   NOAA